createdAt,value
2023-04-22T00:01:36.260Z,66.80
2023-04-22T00:04:21.469Z,66.83
2023-04-22T00:07:05.546Z,66.42
2023-04-22T00:09:49.482Z,66.33
2023-04-22T00:12:35.458Z,66.58
2023-04-22T00:15:21.694Z,65.76
2023-04-22T00:18:07.352Z,67.33
2023-04-22T00:20:51.371Z,67.56
2023-04-22T00:23:35.596Z,66.22
2023-04-22T00:26:19.783Z,67.20
2023-04-22T00:29:05.747Z,66.86
2023-04-22T00:31:49.838Z,68.39
2023-04-22T00:34:33.864Z,67.63
2023-04-22T00:37:18.020Z,66.06
2023-04-22T00:40:02.782Z,67.25
2023-04-22T00:42:50.646Z,68.00
2023-04-22T00:45:38.335Z,67.43
2023-04-22T00:48:22.537Z,67.93
2023-04-22T00:51:07.094Z,67.45
2023-04-22T00:53:51.214Z,67.87
2023-04-22T00:56:37.724Z,68.41
2023-04-22T00:59:22.724Z,68.68
2023-04-22T01:02:08.495Z,69.02
2023-04-22T01:04:54.632Z,68.45
2023-04-22T01:07:39.013Z,68.93
2023-04-22T01:10:22.992Z,70.17
2023-04-22T01:13:08.882Z,69.77
2023-04-22T01:15:54.931Z,71.41
2023-04-22T01:18:40.422Z,71.43
2023-04-22T01:21:25.166Z,72.30
2023-04-22T01:24:10.727Z,72.05
2023-04-22T01:26:55.786Z,72.31
2023-04-22T01:29:40.239Z,72.27
2023-04-22T01:32:24.485Z,72.52
2023-04-22T01:35:09.800Z,72.93
2023-04-22T01:37:53.977Z,73.94
2023-04-22T01:40:40.177Z,73.86
2023-04-22T01:43:24.592Z,72.98
2023-04-22T01:46:09.774Z,73.50
2023-04-22T01:48:53.947Z,74.41
2023-04-22T01:51:39.794Z,72.96
2023-04-22T01:54:23.822Z,72.32
2023-04-22T01:57:11.716Z,72.88
2023-04-22T01:59:56.137Z,72.60
2023-04-22T02:02:40.080Z,72.55
2023-04-22T02:05:24.431Z,72.32
2023-04-22T02:08:08.686Z,71.52
2023-04-22T02:10:53.238Z,71.32
2023-04-22T02:13:42.703Z,71.06
2023-04-22T02:16:26.964Z,70.68
2023-04-22T02:19:11.680Z,70.33
2023-04-22T02:21:55.835Z,70.26
2023-04-22T02:24:39.879Z,69.84
2023-04-22T02:27:24.021Z,69.92
2023-04-22T02:30:11.263Z,69.78
2023-04-22T02:32:56.219Z,69.10
2023-04-22T02:35:40.451Z,69.40
2023-04-22T02:38:24.215Z,69.42
2023-04-22T02:41:08.056Z,69.58
2023-04-22T02:43:54.065Z,69.32
2023-04-22T02:46:39.647Z,69.29
2023-04-22T02:49:23.772Z,69.33
2023-04-22T02:52:07.936Z,69.37
2023-04-22T02:54:52.419Z,69.48
2023-04-22T02:57:36.249Z,69.28
2023-04-22T03:00:22.255Z,68.98
2023-04-22T03:03:07.815Z,68.35
2023-04-22T03:05:52.211Z,69.12
2023-04-22T03:08:35.988Z,68.79
2023-04-22T03:11:19.996Z,68.62
2023-04-22T03:14:05.059Z,68.79
2023-04-22T03:16:49.026Z,67.97
2023-04-22T03:19:34.350Z,68.90
2023-04-22T03:22:18.696Z,68.67
2023-04-22T03:25:03.072Z,69.10
2023-04-22T03:27:49.432Z,67.58
2023-04-22T03:30:33.285Z,68.60
2023-04-22T03:33:17.649Z,68.21
2023-04-22T03:36:12.658Z,67.47
2023-04-22T03:38:57.096Z,67.50
2023-04-22T03:41:43.193Z,68.26
2023-04-22T03:44:27.430Z,67.87
2023-04-22T03:47:12.376Z,68.66
2023-04-22T03:50:02.966Z,68.65
2023-04-22T03:52:51.797Z,68.70
2023-04-22T03:55:38.320Z,67.96
2023-04-22T03:58:22.745Z,67.27
2023-04-22T04:01:08.233Z,67.33
2023-04-22T04:03:53.723Z,67.46
2023-04-22T04:06:39.930Z,67.29
2023-04-22T04:09:25.249Z,68.78
2023-04-22T04:12:09.768Z,67.61
2023-04-22T04:14:59.596Z,68.72
2023-04-22T04:17:44.771Z,68.13
2023-04-22T04:20:29.912Z,68.18
2023-04-22T04:23:13.936Z,67.96
2023-04-22T04:26:03.016Z,68.40
2023-04-22T04:28:49.304Z,69.18
2023-04-22T04:31:35.700Z,69.46
2023-04-22T04:34:20.621Z,70.31
2023-04-22T04:37:05.001Z,69.57
2023-04-22T04:39:59.938Z,69.37
2023-04-22T04:42:55.786Z,68.77
2023-04-22T04:45:48.725Z,69.13
2023-04-22T04:48:36.970Z,70.61
2023-04-22T04:51:25.421Z,70.41
2023-04-22T04:54:14.162Z,69.91
2023-04-22T04:56:59.005Z,68.95
2023-04-22T04:59:44.616Z,69.30
2023-04-22T05:02:29.258Z,69.24
2023-04-22T05:05:14.243Z,68.87
2023-04-22T05:08:00.801Z,67.06
2023-04-22T05:10:45.510Z,66.80
2023-04-22T05:13:30.236Z,66.74
2023-04-22T05:16:16.034Z,64.12
2023-04-22T05:18:59.984Z,63.69
2023-04-22T05:21:44.239Z,61.41
2023-04-22T05:24:28.453Z,61.19
2023-04-22T05:27:16.775Z,61.18
2023-04-22T05:30:01.124Z,60.67
2023-04-22T05:32:51.619Z,60.82
2023-04-22T05:35:35.760Z,60.50
2023-04-22T05:38:20.898Z,60.99
2023-04-22T05:41:05.510Z,60.95
2023-04-22T05:43:49.657Z,60.15
2023-04-22T05:46:36.706Z,60.04
2023-04-22T05:49:24.199Z,58.99
2023-04-22T05:52:26.675Z,59.89
2023-04-22T05:55:19.607Z,60.22
2023-04-22T05:58:04.692Z,60.32
2023-04-22T06:01:02.865Z,59.61
2023-04-22T06:04:06.863Z,59.07
2023-04-22T06:06:54.114Z,59.89
2023-04-22T06:09:38.853Z,59.01
2023-04-22T06:12:25.078Z,58.55
2023-04-22T06:15:11.754Z,58.37
2023-04-22T06:17:56.340Z,58.22
2023-04-22T06:20:40.642Z,58.65
2023-04-22T06:23:26.202Z,58.84
2023-04-22T06:26:10.562Z,58.75
2023-04-22T06:28:54.974Z,58.87
2023-04-22T06:31:39.022Z,57.46
2023-04-22T06:34:23.783Z,57.29
2023-04-22T06:37:09.217Z,56.89
2023-04-22T06:39:55.041Z,56.45
2023-04-22T06:43:04.979Z,56.73
2023-04-22T06:46:18.064Z,55.31
2023-04-22T06:49:22.175Z,55.37
2023-04-22T06:52:12.358Z,53.58
2023-04-22T06:54:57.720Z,53.06
2023-04-22T06:57:41.654Z,52.90
2023-04-22T07:00:26.126Z,54.29
2023-04-22T07:03:10.099Z,52.58
2023-04-22T07:05:54.309Z,52.47
2023-04-22T07:08:38.543Z,52.88
2023-04-22T07:11:23.943Z,53.74
2023-04-22T07:14:26.879Z,52.54
2023-04-22T07:17:10.925Z,53.35
2023-04-22T07:19:54.804Z,54.08
2023-04-22T07:22:38.702Z,54.52
2023-04-22T07:25:23.696Z,52.75
2023-04-22T07:28:09.121Z,53.02
2023-04-22T07:30:53.151Z,52.13
2023-04-22T07:33:37.203Z,52.86
2023-04-22T07:36:21.038Z,52.12
2023-04-22T07:39:05.143Z,51.80
2023-04-22T07:41:49.170Z,52.46
2023-04-22T07:44:34.448Z,51.60
2023-04-22T07:47:18.605Z,50.74
2023-04-22T07:50:02.475Z,50.74
2023-04-22T07:52:48.514Z,49.87
2023-04-22T07:55:33.342Z,50.18
2023-04-22T07:58:17.236Z,50.67
2023-04-22T08:01:02.510Z,50.03
2023-04-22T08:03:46.496Z,50.14
2023-04-22T08:06:30.995Z,50.60
2023-04-22T08:09:14.782Z,50.54
2023-04-22T08:11:58.746Z,50.17
2023-04-22T08:14:42.536Z,48.98
2023-04-22T08:17:28.274Z,49.99
2023-04-22T08:20:12.513Z,49.24
2023-04-22T08:23:00.302Z,48.45
2023-04-22T08:25:44.243Z,48.28
2023-04-22T08:28:28.254Z,48.79
2023-04-22T08:31:12.981Z,50.13
2023-04-22T08:33:58.382Z,50.82
2023-04-22T08:36:42.278Z,50.34
2023-04-22T08:39:26.208Z,51.14
2023-04-22T08:42:10.591Z,49.23
2023-04-22T08:44:55.061Z,47.68
2023-04-22T08:47:39.585Z,49.15
2023-04-22T08:50:25.457Z,49.17
2023-04-22T08:53:09.439Z,49.33
2023-04-22T08:55:55.704Z,48.57
2023-04-22T08:58:40.927Z,46.72
2023-04-22T09:01:26.739Z,47.40
2023-04-22T09:04:12.337Z,45.61
2023-04-22T09:06:58.397Z,46.39
2023-04-22T09:09:44.952Z,46.23
2023-04-22T09:12:29.172Z,48.23
2023-04-22T09:15:14.066Z,46.10
2023-04-22T09:17:58.701Z,45.89
2023-04-22T09:20:43.861Z,48.10
2023-04-22T09:23:29.298Z,45.76
2023-04-22T09:26:13.625Z,47.78
2023-04-22T09:29:00.838Z,46.42
2023-04-22T09:31:49.750Z,47.07
2023-04-22T09:34:34.458Z,47.88
2023-04-22T09:37:21.455Z,47.23
2023-04-22T09:40:08.872Z,44.80
2023-04-22T09:42:54.794Z,43.60
2023-04-22T09:45:41.599Z,44.61
2023-04-22T09:48:25.657Z,42.85
2023-04-22T09:51:17.122Z,43.84
2023-04-22T09:54:04.380Z,44.06
2023-04-22T09:56:51.112Z,45.49
2023-04-22T09:59:35.327Z,45.51
2023-04-22T10:02:19.490Z,46.59
2023-04-22T10:05:03.555Z,44.56
2023-04-22T10:07:47.963Z,45.66
2023-04-22T10:10:32.013Z,45.58
2023-04-22T10:13:17.303Z,46.29
2023-04-22T10:16:02.421Z,45.59
2023-04-22T10:18:47.052Z,46.13
2023-04-22T10:21:33.526Z,45.34
2023-04-22T10:24:19.130Z,44.92
2023-04-22T10:27:06.751Z,45.09
2023-04-22T10:29:52.400Z,45.86
2023-04-22T10:32:36.404Z,44.16
2023-04-22T10:35:29.248Z,44.90
2023-04-22T10:38:13.063Z,45.22
2023-04-22T10:41:01.362Z,44.73
2023-04-22T10:43:46.972Z,43.12
2023-04-22T10:47:03.218Z,44.50
2023-04-22T10:49:47.124Z,42.29
2023-04-22T10:52:31.240Z,43.44
2023-04-22T10:55:15.172Z,43.82
2023-04-22T10:58:00.898Z,44.28
2023-04-22T11:00:53.295Z,44.66
2023-04-22T11:03:39.681Z,41.99
2023-04-22T11:06:27.278Z,42.46
2023-04-22T11:09:13.728Z,41.34
2023-04-22T11:12:38.531Z,41.93
2023-04-22T11:15:23.449Z,42.67
2023-04-22T11:18:19.833Z,42.58
2023-04-22T11:21:08.863Z,43.27
2023-04-22T11:23:53.926Z,42.37
2023-04-22T11:26:40.676Z,42.36
2023-04-22T11:29:25.273Z,42.14
2023-04-22T11:32:12.346Z,43.99
2023-04-22T11:34:56.895Z,45.21
2023-04-22T11:37:46.709Z,45.14
2023-04-22T11:40:33.769Z,44.21
2023-04-22T11:43:19.826Z,45.87
2023-04-22T11:46:05.220Z,44.31
2023-04-22T11:48:49.316Z,43.79
2023-04-22T11:51:33.297Z,41.85
2023-04-22T11:54:18.926Z,44.35
2023-04-22T11:57:04.910Z,43.89
2023-04-22T11:59:59.721Z,44.76
2023-04-22T12:02:45.452Z,43.13
2023-04-22T12:05:43.535Z,45.78
2023-04-22T12:08:34.140Z,45.86
2023-04-22T12:11:19.528Z,45.82
2023-04-22T12:14:07.315Z,47.00
2023-04-22T12:16:52.076Z,45.51
2023-04-22T12:19:36.021Z,46.46
2023-04-22T12:22:26.410Z,46.18
2023-04-22T12:25:11.119Z,46.74
2023-04-22T12:27:56.331Z,45.50
2023-04-22T12:30:40.201Z,44.98
2023-04-22T12:33:24.302Z,44.26
2023-04-22T12:36:08.872Z,44.48
2023-04-22T12:38:52.777Z,43.32
2023-04-22T12:41:36.625Z,43.53
2023-04-22T12:44:24.504Z,43.17
2023-04-22T12:47:09.996Z,43.83
2023-04-22T12:49:54.124Z,44.08
2023-04-22T12:52:38.144Z,45.51
2023-04-22T12:55:22.340Z,44.02
2023-04-22T12:58:06.171Z,44.13
2023-04-22T13:00:51.509Z,42.04
2023-04-22T13:03:35.831Z,42.22
2023-04-22T13:06:19.803Z,41.09
2023-04-22T13:09:03.622Z,43.39
2023-04-22T13:11:49.337Z,45.08
2023-04-22T13:14:33.282Z,45.47
2023-04-22T13:17:18.656Z,43.53
2023-04-22T13:20:04.042Z,43.59
2023-04-22T13:22:48.462Z,43.52
2023-04-22T13:25:32.535Z,44.76
2023-04-22T13:28:16.822Z,45.65
2023-04-22T13:31:01.358Z,44.83
2023-04-22T13:33:47.420Z,43.68
2023-04-22T13:36:31.990Z,42.16
2023-04-22T13:39:16.023Z,42.64
2023-04-22T13:42:00.281Z,42.75
2023-04-22T13:44:44.189Z,43.27
2023-04-22T13:47:28.233Z,42.48
2023-04-22T13:50:13.605Z,41.00
2023-04-22T13:52:57.545Z,42.54
2023-04-22T13:55:43.422Z,43.41
2023-04-22T13:58:27.552Z,42.32
2023-04-22T14:01:11.633Z,41.96
2023-04-22T14:03:56.614Z,40.29
2023-04-22T14:06:42.256Z,43.19
2023-04-22T14:09:26.665Z,43.73
2023-04-22T14:12:12.496Z,41.77
2023-04-22T14:14:56.611Z,41.56
2023-04-22T14:17:41.239Z,41.32
2023-04-22T14:20:26.277Z,40.98
2023-04-22T14:23:11.647Z,40.94
2023-04-22T14:25:56.508Z,41.75
2023-04-22T14:28:41.710Z,42.05
2023-04-22T14:31:26.038Z,41.66
2023-04-22T14:34:09.986Z,42.08
2023-04-22T14:36:53.833Z,42.70
2023-04-22T14:39:39.322Z,43.16
2023-04-22T14:42:23.216Z,43.26
2023-04-22T14:45:08.190Z,44.34
2023-04-22T14:47:52.284Z,44.62
2023-04-22T14:50:36.317Z,44.47
2023-04-22T14:53:20.192Z,45.50
2023-04-22T14:56:05.551Z,45.08
2023-04-22T14:58:49.438Z,44.09
2023-04-22T15:01:34.018Z,44.13
2023-04-22T15:04:19.730Z,49.28
2023-04-22T15:07:05.598Z,53.70
2023-04-22T15:09:50.931Z,53.25
2023-04-22T15:12:36.194Z,54.24
2023-04-22T15:15:20.305Z,53.03
2023-04-22T15:18:05.518Z,52.89
2023-04-22T15:20:49.366Z,53.24
2023-04-22T15:23:33.160Z,53.88
2023-04-22T15:26:17.108Z,54.33
2023-04-22T15:29:03.089Z,51.50
2023-04-22T15:31:47.352Z,54.14
2023-04-22T15:34:31.209Z,53.69
2023-04-22T15:37:16.323Z,55.63
2023-04-22T15:40:00.488Z,57.05
2023-04-22T15:42:44.445Z,57.56
2023-04-22T15:45:29.733Z,56.50
2023-04-22T15:48:13.609Z,57.40
2023-04-22T15:50:57.555Z,55.67
2023-04-22T15:53:41.483Z,55.83
2023-04-22T15:56:26.165Z,53.70
2023-04-22T15:59:10.156Z,54.36
2023-04-22T16:01:55.620Z,54.77
2023-04-22T16:04:39.697Z,55.04
2023-04-22T16:07:23.597Z,55.15
2023-04-22T16:10:09.122Z,57.23
2023-04-22T16:12:53.202Z,58.18
2023-04-22T16:15:37.286Z,59.89
2023-04-22T16:18:22.579Z,58.55
2023-04-22T16:21:07.811Z,59.53
2023-04-22T16:23:51.594Z,58.73
2023-04-22T16:26:35.706Z,59.71
2023-04-22T16:29:19.564Z,59.10
2023-04-22T16:32:03.710Z,61.16
2023-04-22T16:34:49.301Z,60.21
2023-04-22T16:37:34.078Z,60.92
2023-04-22T16:40:17.933Z,60.99
2023-04-22T16:43:05.393Z,62.09
2023-04-22T16:45:49.762Z,62.73
2023-04-22T16:48:33.908Z,63.14
2023-04-22T16:51:19.144Z,64.54
2023-04-22T16:54:03.022Z,66.65
2023-04-22T16:56:46.826Z,66.10
2023-04-22T16:59:30.675Z,66.87
2023-04-22T17:02:14.700Z,68.07
2023-04-22T17:04:58.646Z,68.48
2023-04-22T17:07:43.880Z,68.14
2023-04-22T17:10:27.805Z,68.51
2023-04-22T17:13:11.925Z,68.67
2023-04-22T17:15:55.811Z,68.91
2023-04-22T17:18:39.805Z,68.86
2023-04-22T17:21:23.770Z,70.10
2023-04-22T17:24:09.151Z,69.77
2023-04-22T17:26:53.043Z,71.41
2023-04-22T17:29:37.114Z,72.40
2023-04-22T17:32:20.976Z,72.43
2023-04-22T17:35:05.142Z,72.49
2023-04-22T17:37:48.971Z,73.17
2023-04-22T17:40:34.179Z,75.40
2023-04-22T17:43:18.161Z,73.54
2023-04-22T17:46:01.932Z,74.27
2023-04-22T17:48:46.883Z,73.49
2023-04-22T17:51:31.546Z,75.12
2023-04-22T17:54:15.566Z,74.69
2023-04-22T17:57:01.160Z,74.57
2023-04-22T17:59:45.155Z,74.10
2023-04-22T18:02:29.230Z,72.12
2023-04-22T18:05:13.401Z,72.53
2023-04-22T18:08:00.902Z,74.06
2023-04-22T18:10:45.065Z,75.14
2023-04-22T18:13:30.634Z,74.54
2023-04-22T18:16:14.853Z,75.21
2023-04-22T18:18:59.902Z,74.91
2023-04-22T18:21:56.666Z,75.85
2023-04-22T18:24:44.068Z,76.11
2023-04-22T18:27:28.129Z,76.88
2023-04-22T18:30:14.026Z,77.09
2023-04-22T18:32:58.520Z,76.50
2023-04-22T18:35:42.730Z,77.27
2023-04-22T18:38:27.292Z,78.36
2023-04-22T18:41:13.638Z,77.35
2023-04-22T18:43:57.862Z,76.17
2023-04-22T18:46:43.244Z,74.75
2023-04-22T18:49:27.209Z,73.84
2023-04-22T18:52:11.268Z,74.00
2023-04-22T18:54:55.318Z,73.26
2023-04-22T18:57:39.350Z,72.80
2023-04-22T19:00:23.846Z,73.43
2023-04-22T19:03:09.725Z,71.51
2023-04-22T19:05:53.904Z,72.02
2023-04-22T19:08:38.014Z,70.58
2023-04-22T19:11:22.017Z,70.00
2023-04-22T19:14:06.017Z,69.86
2023-04-22T19:16:50.083Z,70.79
2023-04-22T19:19:35.829Z,69.53
2023-04-22T19:22:20.080Z,69.48
2023-04-22T19:25:06.233Z,69.16
2023-04-22T19:27:50.095Z,69.89
2023-04-22T19:30:34.183Z,69.38
2023-04-22T19:33:18.208Z,69.13
2023-04-22T19:36:03.815Z,69.38
2023-04-22T19:38:47.894Z,69.19
2023-04-22T19:41:33.558Z,68.49
2023-04-22T19:44:17.671Z,68.08
2023-04-22T19:47:02.092Z,67.96
2023-04-22T19:49:46.624Z,67.66
2023-04-22T19:52:34.389Z,68.74
2023-04-22T19:55:18.921Z,67.64
2023-04-22T19:58:03.952Z,68.39
2023-04-22T20:00:49.551Z,68.45
2023-04-22T20:03:34.356Z,68.61
2023-04-22T20:06:19.454Z,68.26
2023-04-22T20:09:06.597Z,69.96
2023-04-22T20:11:51.412Z,70.56
2023-04-22T20:14:36.281Z,71.83
2023-04-22T20:17:20.954Z,70.72
2023-04-22T20:20:08.374Z,71.06
2023-04-22T20:22:55.105Z,71.33
2023-04-22T20:25:44.287Z,70.49
2023-04-22T20:28:43.665Z,70.63
2023-04-22T20:31:27.835Z,70.38
2023-04-22T20:34:11.921Z,70.13
2023-04-22T20:36:56.078Z,69.79
2023-04-22T20:39:41.243Z,70.98
2023-04-22T20:42:26.480Z,70.26
2023-04-22T20:45:15.119Z,70.96
2023-04-22T20:47:59.182Z,71.29
2023-04-22T20:50:44.011Z,71.19
2023-04-22T20:53:28.396Z,70.00
2023-04-22T20:56:12.263Z,70.76
2023-04-22T20:58:57.449Z,70.38
2023-04-22T21:01:41.545Z,70.27
2023-04-22T21:04:26.299Z,71.26
2023-04-22T21:07:14.271Z,70.87
2023-04-22T21:09:58.702Z,70.86
2023-04-22T21:12:43.318Z,71.84
2023-04-22T21:15:29.580Z,72.13
2023-04-22T21:18:15.027Z,73.26
2023-04-22T21:20:59.906Z,73.96
2023-04-22T21:23:44.283Z,73.42
2023-04-22T21:26:29.177Z,72.00
2023-04-22T21:29:13.486Z,71.46
2023-04-22T21:32:08.732Z,71.30
2023-04-22T21:34:53.790Z,72.35
2023-04-22T21:37:37.737Z,72.91
2023-04-22T21:40:21.801Z,72.06
2023-04-22T21:43:06.184Z,72.20
2023-04-22T21:45:50.053Z,71.33
2023-04-22T21:48:35.155Z,72.15
2023-04-22T21:51:19.050Z,71.80
2023-04-22T21:54:03.347Z,71.10
2023-04-22T21:56:47.281Z,72.38
2023-04-22T21:59:31.579Z,72.68
2023-04-22T22:02:15.472Z,71.04
2023-04-22T22:05:01.005Z,71.43
2023-04-22T22:07:45.498Z,71.49
2023-04-22T22:10:29.297Z,71.73
2023-04-22T22:13:13.238Z,70.90
2023-04-22T22:15:57.620Z,70.04
2023-04-22T22:18:41.992Z,71.90
2023-04-22T22:21:27.152Z,71.67
2023-04-22T22:24:11.009Z,71.69
2023-04-22T22:26:54.876Z,72.27
2023-04-22T22:29:40.945Z,73.14
2023-04-22T22:32:24.931Z,73.15
2023-04-22T22:35:09.383Z,73.13
2023-04-22T22:37:54.669Z,73.61
2023-04-22T22:40:38.353Z,72.60
2023-04-22T22:43:22.250Z,72.33
2023-04-22T22:46:06.140Z,72.03
2023-04-22T22:48:50.339Z,71.36
2023-04-22T22:51:34.586Z,72.36
2023-04-22T22:54:19.773Z,73.59
2023-04-22T22:57:05.509Z,72.70
2023-04-22T22:59:49.868Z,72.44
2023-04-22T23:02:34.068Z,71.67
2023-04-22T23:05:18.450Z,71.89
2023-04-22T23:08:02.251Z,72.32
2023-04-22T23:10:47.462Z,72.14
2023-04-22T23:13:31.295Z,72.73
2023-04-22T23:16:16.455Z,71.83
2023-04-22T23:19:01.375Z,71.77
2023-04-22T23:21:46.115Z,72.29
2023-04-22T23:24:30.620Z,72.03
2023-04-22T23:27:17.520Z,72.36
2023-04-22T23:30:02.199Z,74.34
2023-04-22T23:32:49.948Z,75.04
2023-04-22T23:35:35.013Z,73.74
2023-04-22T23:38:19.592Z,73.80
2023-04-22T23:41:03.668Z,74.23
2023-04-22T23:43:48.860Z,72.79
2023-04-22T23:46:32.740Z,74.25
2023-04-22T23:49:16.634Z,72.59
2023-04-22T23:52:00.891Z,73.88
2023-04-22T23:54:46.060Z,74.04
2023-04-22T23:57:30.502Z,73.70
